Time;durP1;ratioP1;P1;durP2;ratioP2;P2;SDS_P1;SDS_P2;PMS_P1;PMS_P2;Temp;Humidity;BMP_temperature;BMP_pressure;BME280_temperature;BME280_humidity;BME280_pressure;Samples;Min_cycle;Max_cycle;Signal;HPM_P1;HPM_P2
2022/06/06 00:01:53;;;;;;;2.37;1.10;;;22.40;53.80;;;;;;2344065;54;21043;-74
2022/06/06 00:04:20;;;;;;;1.73;0.77;;;22.40;53.90;;;;;;2344048;54;20921;-75
2022/06/06 00:06:47;;;;;;;2.30;1.02;;;22.30;53.90;;;;;;2341331;54;20913;-74
2022/06/06 00:09:16;;;;;;;2.00;0.90;;;22.30;53.90;;;;;;2590058;52;20960;-74
2022/06/06 00:11:42;;;;;;;2.30;1.10;;;22.30;54.00;;;;;;2343379;54;20972;-73
2022/06/06 00:14:10;;;;;;;2.03;0.90;;;22.30;54.00;;;;;;2441785;52;21355;-75
2022/06/06 00:16:36;;;;;;;2.25;1.00;;;22.30;54.00;;;;;;2342746;54;20983;-74
2022/06/06 00:19:05;;;;;;;2.30;0.88;;;22.20;54.00;;;;;;2376211;53;21017;-74
2022/06/06 00:21:31;;;;;;;1.98;1.00;;;22.20;54.00;;;;;;2331051;53;21560;-75
2022/06/06 00:23:59;;;;;;;1.62;0.80;;;22.20;54.00;;;;;;2353533;53;20993;-74
2022/06/06 00:26:26;;;;;;;2.97;0.90;;;22.20;54.10;;;;;;2328247;53;21041;-74
2022/06/06 00:28:53;;;;;;;2.10;0.70;;;22.10;54.10;;;;;;2353972;53;20928;-74
2022/06/06 00:36:48;;;;;;;2.03;1.00;;;22.20;54.40;;;;;;2344805;54;20997;-75
2022/06/06 00:39:17;;;;;;;2.60;0.90;;;22.10;54.40;;;;;;2316196;54;21052;-73
2022/06/06 00:41:45;;;;;;;2.30;1.00;;;22.10;54.40;;;;;;2321265;53;20991;-75
2022/06/06 00:44:17;;;;;;;2.15;0.90;;;22.10;54.50;;;;;;2326741;53;20939;-74
2022/06/06 00:46:50;;;;;;;2.20;0.90;;;22.10;54.50;;;;;;2312837;53;20957;-74
2022/06/06 00:49:25;;;;;;;2.40;0.75;;;22.10;54.50;;;;;;2342243;53;20964;-74
2022/06/06 00:51:51;;;;;;;2.75;1.08;;;22.10;54.50;;;;;;2329949;53;21496;-74
2022/06/06 00:54:17;;;;;;;1.98;0.95;;;22.10;54.50;;;;;;2539541;52;21737;-74
2022/06/06 00:56:47;;;;;;;1.95;0.90;;;22.10;54.50;;;;;;2341599;53;21468;-73
2022/06/06 00:59:19;;;;;;;2.40;1.02;;;22.10;54.60;;;;;;2342885;53;20965;-74
2022/06/06 01:01:48;;;;;;;1.70;0.80;;;22.10;54.60;;;;;;2346246;53;20920;-74
2022/06/06 01:04:15;;;;;;;1.55;0.80;;;22.10;54.60;;;;;;2348394;53;21410;-75
2022/06/06 01:06:42;;;;;;;1.90;0.90;;;22.10;54.70;;;;;;2345539;53;21253;-73
2022/06/06 01:09:08;;;;;;;2.37;0.90;;;22.10;54.80;;;;;;2590825;53;21450;-74
2022/06/06 01:11:39;;;;;;;5.10;1.10;;;22.10;54.80;;;;;;2591134;53;20940;-74
2022/06/06 01:14:06;;;;;;;2.28;0.80;;;22.10;54.90;;;;;;2344732;53;20929;-74
2022/06/06 01:16:44;;;;;;;2.35;1.05;;;22.10;54.90;;;;;;2590196;53;21441;-75
2022/06/06 01:21:42;;;;;;;2.10;0.82;;;22.10;55.10;;;;;;2344944;53;21016;-74
2022/06/06 01:24:29;;;;;;;2.25;0.85;;;22.10;55.00;;;;;;2344790;53;21014;-73
2022/06/06 01:28:42;;;;;;;1.95;0.90;;;22.10;55.10;;;;;;2352152;54;20957;-74
2022/06/06 01:31:16;;;;;;;2.28;1.00;;;22.10;55.20;;;;;;2572478;53;20968;-74
2022/06/06 01:33:57;;;;;;;2.10;0.82;;;22.10;54.80;;;;;;2469292;53;20954;-74
2022/06/06 01:36:27;;;;;;;1.98;0.80;;;22.00;55.00;;;;;;2323294;54;21128;-74
2022/06/06 01:38:54;;;;;;;1.70;0.75;;;22.00;54.80;;;;;;2348682;54;21055;-75
2022/06/06 01:41:36;;;;;;;2.30;0.90;;;22.00;54.80;;;;;;2316084;54;20935;-74
2022/06/06 01:44:11;;;;;;;1.98;0.80;;;21.90;54.80;;;;;;2320505;54;20947;-73
2022/06/06 01:46:37;;;;;;;1.90;0.90;;;22.00;55.00;;;;;;2389282;53;21959;-74
2022/06/06 01:49:06;;;;;;;2.60;1.00;;;21.90;54.80;;;;;;2557378;53;21960;-74
2022/06/06 01:51:32;;;;;;;1.52;0.80;;;21.90;54.80;;;;;;2315764;54;21015;-74
2022/06/06 01:53:58;;;;;;;1.98;0.90;;;21.80;54.70;;;;;;2317114;53;21524;-73
2022/06/06 01:56:46;;;;;;;2.28;0.82;;;21.80;54.60;;;;;;2316611;53;21043;-74
2022/06/06 01:59:13;;;;;;;1.60;0.80;;;21.80;54.70;;;;;;2541759;53;20936;-74
2022/06/06 02:01:39;;;;;;;2.10;0.80;;;21.80;54.60;;;;;;2317079;53;20935;-74
2022/06/06 02:04:06;;;;;;;2.00;0.80;;;21.70;54.50;;;;;;2317689;54;20927;-74
2022/06/06 02:06:32;;;;;;;2.28;0.80;;;21.70;54.60;;;;;;2391396;54;21003;-73
2022/06/06 02:09:00;;;;;;;2.37;0.90;;;21.70;54.60;;;;;;2341618;54;20965;-74
2022/06/06 02:11:28;;;;;;;1.90;0.90;;;21.60;54.50;;;;;;2343671;54;21786;-73
2022/06/06 02:13:54;;;;;;;2.28;0.90;;;21.60;54.60;;;;;;2344580;54;20965;-74
2022/06/06 02:16:20;;;;;;;2.03;1.00;;;21.50;54.60;;;;;;2344150;54;20936;-74
2022/06/06 02:18:47;;;;;;;2.17;1.00;;;21.50;54.80;;;;;;2344192;54;20925;-73
2022/06/06 02:21:16;;;;;;;1.52;0.73;;;21.50;54.90;;;;;;2319487;54;21025;-73
2022/06/06 02:23:43;;;;;;;2.30;1.00;;;21.40;54.80;;;;;;2343782;54;21421;-73
2022/06/06 02:26:10;;;;;;;2.10;0.95;;;21.40;54.90;;;;;;2344670;54;20973;-73
2022/06/06 02:28:37;;;;;;;1.87;0.90;;;21.40;55.00;;;;;;2342842;54;20932;-74
2022/06/06 02:31:04;;;;;;;2.10;1.00;;;21.40;55.10;;;;;;2344512;54;20985;-73
2022/06/06 02:33:30;;;;;;;3.00;1.17;;;21.30;55.10;;;;;;2342751;54;21361;-73
2022/06/06 02:35:59;;;;;;;1.80;0.85;;;21.30;55.20;;;;;;2343588;54;21080;-75
2022/06/06 02:38:26;;;;;;;2.28;1.00;;;21.30;55.30;;;;;;2343940;54;20953;-73
2022/06/06 02:40:52;;;;;;;2.30;1.00;;;21.20;55.20;;;;;;2344272;54;20949;-74
2022/06/06 02:43:19;;;;;;;3.03;0.98;;;21.20;55.20;;;;;;2589239;52;20924;-73
2022/06/06 02:45:46;;;;;;;2.05;1.00;;;21.20;55.30;;;;;;2331821;54;20974;-74
2022/06/06 02:48:13;;;;;;;2.80;1.17;;;21.20;55.40;;;;;;2452067;53;21056;-74
2022/06/06 02:50:39;;;;;;;1.62;0.82;;;21.20;55.50;;;;;;2343847;54;20952;-74
2022/06/06 02:53:05;;;;;;;2.83;1.25;;;21.20;55.60;;;;;;2344777;54;20980;-74
2022/06/06 02:55:32;;;;;;;2.45;1.15;;;21.20;55.60;;;;;;2426500;52;22028;-74
2022/06/06 02:57:58;;;;;;;2.35;1.08;;;21.20;55.70;;;;;;2360864;52;21581;-73
2022/06/06 03:00:26;;;;;;;2.35;1.10;;;21.20;55.80;;;;;;2586274;52;21920;-73
2022/06/06 03:02:53;;;;;;;2.62;1.10;;;21.20;55.90;;;;;;2345375;54;22136;-74
2022/06/06 03:05:19;;;;;;;3.30;1.12;;;21.20;56.00;;;;;;2346548;54;20941;-74
